createdAt,value
2022-09-27T00:00:06.241Z,99416.56
2022-09-27T00:02:58.120Z,99411.44
2022-09-27T00:05:24.386Z,99411.63
2022-09-27T00:07:52.493Z,99406.19
2022-09-27T00:10:18.984Z,99418.16
2022-09-27T00:12:45.276Z,99416.88
2022-09-27T00:15:11.919Z,99402.66
2022-09-27T00:17:38.192Z,99394.44
2022-09-27T00:20:06.205Z,99398.56
2022-09-27T00:22:32.950Z,99396.69
2022-09-27T00:24:59.056Z,99390.22
2022-09-27T00:27:26.535Z,99383.50
2022-09-27T00:29:53.322Z,99387.72
2022-09-27T00:32:19.796Z,99379.75
2022-09-27T00:34:46.195Z,99377.44
2022-09-27T00:37:12.310Z,99377.03
2022-09-27T00:39:39.306Z,99375.81
2022-09-27T00:42:09.244Z,99372.66
2022-09-27T00:44:38.896Z,99373.69
2022-09-27T00:47:18.269Z,99371.88
2022-09-27T00:50:00.121Z,99362.66
2022-09-27T00:52:33.547Z,99353.28
2022-09-27T00:55:09.006Z,99351.03
2022-09-27T00:57:35.449Z,99355.88
2022-09-27T01:00:06.555Z,99349.59
2022-09-27T01:02:35.695Z,99346.44
2022-09-27T01:05:04.889Z,99344.94
2022-09-27T01:07:31.255Z,99347.19
2022-09-27T01:09:57.812Z,99349.47
2022-09-27T01:12:48.977Z,99350.00
2022-09-27T01:15:42.604Z,99345.25
2022-09-27T01:18:32.135Z,99339.84
2022-09-27T01:21:22.103Z,99335.25
2022-09-27T01:24:17.737Z,99334.56
2022-09-27T01:27:08.723Z,99328.78
2022-09-27T01:29:55.497Z,99324.84
2022-09-27T01:33:03.780Z,99325.56
2022-09-27T01:35:44.947Z,99319.38
2022-09-27T01:38:29.387Z,99314.41
2022-09-27T01:41:09.266Z,99314.06
2022-09-27T01:44:03.783Z,99309.94
2022-09-27T01:46:41.295Z,99309.53
2022-09-27T01:49:22.699Z,99298.69
2022-09-27T01:51:54.538Z,99285.75
2022-09-27T01:54:29.623Z,99288.78
2022-09-27T01:57:16.621Z,99282.38
2022-09-27T01:59:49.892Z,99274.06
2022-09-27T02:02:41.561Z,99273.09
2022-09-27T02:05:52.727Z,99280.91
2022-09-27T02:08:51.413Z,99273.19
2022-09-27T02:11:28.806Z,99267.75
2022-09-27T02:14:19.420Z,99263.16
2022-09-27T02:17:08.057Z,99262.91
2022-09-27T02:19:45.271Z,99262.31
2022-09-27T02:22:24.192Z,99257.31
2022-09-27T02:24:57.983Z,99253.75
2022-09-27T02:27:35.486Z,99252.09
2022-09-27T02:30:12.917Z,99251.44
2022-09-27T02:32:42.058Z,99245.56
2022-09-27T02:35:17.996Z,99238.09
2022-09-27T02:37:45.559Z,99234.16
2022-09-27T02:40:13.059Z,99231.00
2022-09-27T02:42:42.301Z,99227.63
2022-09-27T02:45:11.328Z,99232.25
2022-09-27T02:47:46.751Z,99228.47
2022-09-27T02:50:36.990Z,99216.97
2022-09-27T02:53:37.955Z,99218.41
2022-09-27T02:56:27.458Z,99219.03
2022-09-27T02:59:32.409Z,99210.03
2022-09-27T03:02:52.953Z,99209.16
2022-09-27T03:06:08.686Z,99216.66
2022-09-27T03:08:37.202Z,99208.72
2022-09-27T03:11:03.979Z,99210.81
2022-09-27T03:13:31.042Z,99215.19
2022-09-27T03:16:01.588Z,99220.59
2022-09-27T03:18:51.460Z,99207.22
2022-09-27T03:21:53.343Z,99205.50
2022-09-27T03:24:19.611Z,99194.00
2022-09-27T03:26:46.668Z,99193.59
2022-09-27T03:29:13.356Z,99198.00
2022-09-27T03:31:43.760Z,99188.97
2022-09-27T03:34:29.537Z,99182.66
2022-09-27T03:36:56.013Z,99183.09
2022-09-27T03:39:22.201Z,99180.97
2022-09-27T03:41:48.546Z,99174.91
2022-09-27T03:44:15.177Z,99183.88
2022-09-27T03:46:41.306Z,99173.47
2022-09-27T03:49:07.801Z,99179.31
2022-09-27T03:51:33.963Z,99173.88
2022-09-27T03:54:00.192Z,99176.34
2022-09-27T03:56:28.289Z,99170.91
2022-09-27T03:58:54.618Z,99164.66
2022-09-27T04:01:21.155Z,99152.50
2022-09-27T04:03:53.566Z,99162.31
2022-09-27T04:06:32.576Z,99156.25
2022-09-27T04:08:59.143Z,99150.81
2022-09-27T04:11:35.771Z,99155.97
2022-09-27T04:14:04.418Z,99150.53
2022-09-27T04:16:34.443Z,99147.19
2022-09-27T04:19:19.324Z,99144.72
2022-09-27T04:21:50.350Z,99142.19
2022-09-27T04:24:17.439Z,99141.16
2022-09-27T04:26:56.102Z,99136.56
2022-09-27T04:29:25.395Z,99127.44
2022-09-27T04:31:53.436Z,99123.06
2022-09-27T04:34:48.595Z,99132.44
2022-09-27T04:37:20.978Z,99140.38
2022-09-27T04:39:49.319Z,99130.59
2022-09-27T04:42:16.264Z,99130.16
2022-09-27T04:44:45.246Z,99131.25
2022-09-27T04:47:11.946Z,99128.28
2022-09-27T04:49:38.155Z,99118.91
2022-09-27T04:52:05.429Z,99116.38
2022-09-27T04:54:32.356Z,99119.13
2022-09-27T04:57:12.102Z,99110.97
2022-09-27T04:59:41.238Z,99110.75
2022-09-27T05:02:07.602Z,99109.91
2022-09-27T05:05:09.805Z,99108.69
2022-09-27T05:07:40.915Z,99110.59
2022-09-27T05:10:13.133Z,99106.25
2022-09-27T05:12:39.983Z,99101.03
2022-09-27T05:15:07.976Z,99104.41
2022-09-27T05:17:34.354Z,99102.28
2022-09-27T05:20:34.137Z,99102.72
2022-09-27T05:23:08.755Z,99097.50
2022-09-27T05:25:34.873Z,99105.88
2022-09-27T05:28:01.249Z,99102.56
2022-09-27T05:30:28.234Z,99103.81
2022-09-27T05:33:04.497Z,99099.00
2022-09-27T05:35:55.445Z,99099.03
2022-09-27T05:38:25.175Z,99107.84
2022-09-27T05:40:54.913Z,99098.84
2022-09-27T05:43:21.042Z,99099.25
2022-09-27T05:45:48.546Z,99104.88
2022-09-27T05:48:18.386Z,99113.47
2022-09-27T05:50:52.384Z,99104.50
2022-09-27T05:53:18.789Z,99099.69
2022-09-27T05:55:44.877Z,99099.72
2022-09-27T05:58:15.426Z,99093.00
2022-09-27T06:01:06.132Z,99091.34
2022-09-27T06:03:47.439Z,99097.41
2022-09-27T06:06:36.733Z,99100.78
2022-09-27T06:09:03.458Z,99097.03
2022-09-27T06:11:29.686Z,99101.03
2022-09-27T06:13:56.679Z,99101.88
2022-09-27T06:16:23.934Z,99097.50
2022-09-27T06:18:51.359Z,99096.47
2022-09-27T06:21:18.086Z,99097.91
2022-09-27T06:23:54.182Z,99098.97
2022-09-27T06:26:27.168Z,99092.28
2022-09-27T06:29:11.904Z,99092.69
2022-09-27T06:31:43.754Z,99091.66
2022-09-27T06:34:22.567Z,99102.50
2022-09-27T06:36:51.479Z,99103.56
2022-09-27T06:39:19.120Z,99101.25
2022-09-27T06:42:03.296Z,99094.38
2022-09-27T06:44:50.276Z,99103.59
2022-09-27T06:47:35.542Z,99097.31
2022-09-27T06:50:20.694Z,99093.81
2022-09-27T06:52:48.896Z,99098.63
2022-09-27T06:55:16.091Z,99089.84
2022-09-27T06:58:00.883Z,99089.81
2022-09-27T07:00:28.314Z,99095.06
2022-09-27T07:03:14.118Z,99096.50
2022-09-27T07:06:05.571Z,99091.03
2022-09-27T07:08:51.390Z,99087.63
2022-09-27T07:11:19.283Z,99083.66
2022-09-27T07:13:45.471Z,99089.47
2022-09-27T07:16:13.091Z,99080.88
2022-09-27T07:18:41.062Z,99084.78
2022-09-27T07:21:08.250Z,99079.97
2022-09-27T07:23:36.788Z,99081.13
2022-09-27T07:26:06.269Z,99087.81
2022-09-27T07:28:33.927Z,99082.13
2022-09-27T07:31:02.172Z,99073.28
2022-09-27T07:33:29.543Z,99079.13
2022-09-27T07:35:56.213Z,99084.13
2022-09-27T07:38:23.750Z,99076.16
2022-09-27T07:40:50.942Z,99074.88
2022-09-27T07:43:18.776Z,99064.63
2022-09-27T07:45:45.715Z,99081.53
2022-09-27T07:48:32.198Z,99080.03
2022-09-27T07:51:03.586Z,99079.31
2022-09-27T07:54:06.539Z,99074.44
2022-09-27T07:56:34.670Z,99087.41
2022-09-27T07:59:01.708Z,99080.72
2022-09-27T08:01:29.338Z,99084.34
2022-09-27T08:03:57.878Z,99091.63
2022-09-27T08:06:24.491Z,99086.13
2022-09-27T08:08:52.198Z,99088.72
2022-09-27T08:11:18.504Z,99087.44
2022-09-27T08:13:49.105Z,99093.41
2022-09-27T08:16:16.469Z,99085.25
2022-09-27T08:19:08.496Z,99087.56
2022-09-27T08:21:58.917Z,99075.81
2022-09-27T08:24:30.425Z,99074.03
2022-09-27T08:27:15.376Z,99080.88
2022-09-27T08:29:56.867Z,99082.31
2022-09-27T08:32:23.670Z,99081.63
2022-09-27T08:34:50.987Z,99086.56
2022-09-27T08:37:17.330Z,99091.88
2022-09-27T08:39:47.710Z,99085.56
2022-09-27T08:42:39.216Z,99089.63
2022-09-27T08:45:17.132Z,99093.97
2022-09-27T08:47:52.280Z,99089.97
2022-09-27T08:50:26.406Z,99092.66
2022-09-27T08:53:10.769Z,99087.13
2022-09-27T08:55:44.028Z,99089.25
2022-09-27T08:58:31.487Z,99098.81
2022-09-27T09:01:02.571Z,99098.66
2022-09-27T09:03:39.377Z,99092.44
2022-09-27T09:06:39.058Z,99104.09
2022-09-27T09:09:42.581Z,99101.81
2022-09-27T09:12:58.485Z,99103.88
2022-09-27T09:15:54.662Z,99111.78
2022-09-27T09:18:51.503Z,99110.13
2022-09-27T09:21:58.300Z,99102.66
2022-09-27T09:24:38.550Z,99097.22
2022-09-27T09:27:16.444Z,99098.72
2022-09-27T09:30:06.315Z,99105.63
2022-09-27T09:33:02.006Z,99106.78
2022-09-27T09:35:36.833Z,99098.50
2022-09-27T09:38:10.449Z,99105.72
2022-09-27T09:40:45.958Z,99095.00
2022-09-27T09:43:25.491Z,99100.25
2022-09-27T09:46:06.689Z,99105.94
2022-09-27T09:48:49.140Z,99098.13
2022-09-27T09:51:21.642Z,99108.28
2022-09-27T09:54:02.080Z,99108.13
2022-09-27T09:56:37.913Z,99100.31
2022-09-27T09:59:13.387Z,99100.59
2022-09-27T10:01:44.382Z,99096.97
2022-09-27T10:04:33.349Z,99090.28
2022-09-27T10:07:01.459Z,99084.13
2022-09-27T10:09:32.911Z,99086.03
2022-09-27T10:12:19.397Z,99084.06
2022-09-27T10:14:48.549Z,99085.00
2022-09-27T10:17:19.555Z,99086.75
2022-09-27T10:19:47.894Z,99081.03
2022-09-27T10:22:28.555Z,99082.53
2022-09-27T10:25:02.598Z,99078.00
2022-09-27T10:27:53.596Z,99075.94
2022-09-27T10:30:28.603Z,99084.84
2022-09-27T10:33:15.207Z,99079.06
2022-09-27T10:35:47.444Z,99074.22
2022-09-27T10:38:33.250Z,99077.34
2022-09-27T10:41:22.956Z,99071.53
2022-09-27T10:43:49.820Z,99073.59
2022-09-27T10:46:32.345Z,99072.63
2022-09-27T10:49:21.634Z,99070.50
2022-09-27T10:51:53.928Z,99066.47
2022-09-27T10:54:28.190Z,99064.03
2022-09-27T10:56:59.701Z,99063.94
2022-09-27T10:59:29.970Z,99051.53
2022-09-27T11:01:57.582Z,99060.91
2022-09-27T11:04:37.870Z,99061.97
2022-09-27T11:07:19.234Z,99054.31
2022-09-27T11:09:54.035Z,99046.75
2022-09-27T11:12:22.403Z,99045.28
2022-09-27T11:14:57.926Z,99042.72
2022-09-27T11:17:32.054Z,99041.22
2022-09-27T11:20:29.947Z,99042.44
2022-09-27T11:23:18.315Z,99040.84
2022-09-27T11:25:44.415Z,99049.41
2022-09-27T11:28:31.197Z,99045.41
2022-09-27T11:31:11.519Z,99038.47
2022-09-27T11:33:47.403Z,99043.69
2022-09-27T11:36:33.430Z,99042.97
2022-09-27T11:39:24.181Z,99032.63
2022-09-27T11:41:58.556Z,99036.31
2022-09-27T11:44:37.121Z,99023.50
2022-09-27T11:47:26.632Z,99027.31
2022-09-27T11:50:15.020Z,99007.34
2022-09-27T11:52:50.587Z,99017.91
2022-09-27T11:55:26.549Z,99021.91
2022-09-27T11:58:08.167Z,99015.59
2022-09-27T12:01:07.606Z,99025.38
2022-09-27T12:03:47.947Z,99017.78
2022-09-27T12:06:20.369Z,99010.53
2022-09-27T12:09:01.884Z,99016.66
2022-09-27T12:11:41.226Z,99014.72
2022-09-27T12:14:29.801Z,99014.88
2022-09-27T12:16:59.094Z,99006.19
2022-09-27T12:19:29.998Z,99001.47
2022-09-27T12:22:05.874Z,99005.50
2022-09-27T12:24:37.582Z,99004.06
2022-09-27T12:27:20.944Z,99006.47
2022-09-27T12:29:49.057Z,99010.47
2022-09-27T12:32:29.085Z,99001.78
2022-09-27T12:35:04.435Z,99005.97
2022-09-27T12:37:37.222Z,98999.38
2022-09-27T12:40:18.019Z,99000.72
2022-09-27T12:42:50.176Z,99002.31
2022-09-27T12:45:35.098Z,98997.19
2022-09-27T12:48:16.866Z,98997.38
2022-09-27T12:50:57.935Z,98989.25
2022-09-27T12:53:34.751Z,99001.41
2022-09-27T12:56:17.806Z,98992.22
2022-09-27T12:59:02.455Z,98990.91
2022-09-27T13:02:04.247Z,98987.34
2022-09-27T13:04:34.248Z,98985.81
2022-09-27T13:07:27.348Z,98980.63
2022-09-27T13:10:04.416Z,98983.00
2022-09-27T13:12:33.429Z,98975.78
2022-09-27T13:15:31.152Z,98967.47
2022-09-27T13:18:01.359Z,98962.63
2022-09-27T13:20:36.264Z,98960.59
2022-09-27T13:23:15.733Z,98976.50
2022-09-27T13:25:59.050Z,98972.25
2022-09-27T13:28:47.507Z,98967.63
2022-09-27T13:32:01.008Z,98975.16
2022-09-27T13:34:42.732Z,98977.19
2022-09-27T13:37:39.131Z,98989.25
2022-09-27T13:40:22.241Z,98979.25
2022-09-27T13:43:10.731Z,98967.28
2022-09-27T13:45:56.612Z,98973.19
2022-09-27T13:48:37.006Z,98972.44
2022-09-27T13:51:18.169Z,98964.88
2022-09-27T13:53:57.394Z,98970.81
2022-09-27T13:56:36.071Z,98973.31
2022-09-27T13:59:49.255Z,98966.59
2022-09-27T14:03:00.428Z,98969.56
2022-09-27T14:05:41.265Z,98973.88
2022-09-27T14:08:29.784Z,98972.69
2022-09-27T14:10:58.021Z,98961.75
2022-09-27T14:13:26.618Z,98968.19
2022-09-27T14:16:04.524Z,98973.59
2022-09-27T14:18:35.608Z,98957.78
2022-09-27T14:21:19.053Z,98959.09
2022-09-27T14:24:18.817Z,98963.84
2022-09-27T14:26:45.274Z,98964.22
2022-09-27T14:29:21.898Z,98960.84
2022-09-27T14:32:04.029Z,98960.44
2022-09-27T14:34:43.359Z,98957.25
2022-09-27T14:37:25.217Z,98954.75
2022-09-27T14:40:18.454Z,98955.66
2022-09-27T14:42:44.695Z,98954.69
2022-09-27T14:45:25.899Z,98951.94
2022-09-27T14:47:52.765Z,98949.59
2022-09-27T14:50:30.376Z,98952.19
2022-09-27T14:52:59.110Z,98952.47
2022-09-27T14:55:28.538Z,98948.31
2022-09-27T14:57:58.111Z,98951.09
2022-09-27T15:00:31.451Z,98954.03
2022-09-27T15:03:00.145Z,98954.28
2022-09-27T15:05:29.787Z,98951.25
2022-09-27T15:07:57.781Z,98950.94
2022-09-27T15:10:27.655Z,98949.41
2022-09-27T15:12:59.117Z,98953.06
2022-09-27T15:15:31.115Z,98952.47
2022-09-27T15:18:01.336Z,98957.00
2022-09-27T15:20:35.414Z,98957.09
2022-09-27T15:23:04.560Z,98956.63
2022-09-27T15:25:37.912Z,98950.19
2022-09-27T15:28:06.238Z,98948.16
2022-09-27T15:30:37.531Z,98955.75
2022-09-27T15:33:06.987Z,98950.28
2022-09-27T15:35:35.756Z,98954.47
2022-09-27T15:38:24.206Z,98957.13
2022-09-27T15:40:50.879Z,98968.13
2022-09-27T15:43:19.515Z,98966.31
2022-09-27T15:45:52.589Z,98976.78
2022-09-27T15:48:20.238Z,98967.59
2022-09-27T15:50:48.249Z,98974.06
2022-09-27T15:53:33.425Z,98971.19
2022-09-27T15:56:01.740Z,98968.28
2022-09-27T15:58:28.785Z,98973.38
2022-09-27T16:01:01.956Z,98975.03
2022-09-27T16:03:29.179Z,98973.59
2022-09-27T16:05:56.696Z,98968.44
2022-09-27T16:08:24.004Z,98966.97
2022-09-27T16:10:52.929Z,98973.59
2022-09-27T16:13:19.376Z,98976.78
2022-09-27T16:15:47.157Z,98972.44
2022-09-27T16:18:14.047Z,98972.22
2022-09-27T16:20:40.669Z,98973.16
2022-09-27T16:23:06.956Z,98990.78
2022-09-27T16:25:33.747Z,99000.97
2022-09-27T16:28:01.010Z,99004.88
2022-09-27T16:30:28.781Z,99009.09
2022-09-27T16:32:55.460Z,99004.59
2022-09-27T16:35:23.394Z,99004.03
2022-09-27T16:37:49.804Z,99015.38
2022-09-27T16:40:19.343Z,99028.25
2022-09-27T16:42:49.714Z,99025.41
2022-09-27T16:45:19.184Z,99036.13
2022-09-27T16:47:47.047Z,99038.84
2022-09-27T16:50:33.094Z,99046.50
2022-09-27T16:53:00.655Z,99045.22
2022-09-27T16:55:28.026Z,99038.09
2022-09-27T16:57:57.653Z,99041.88
2022-09-27T17:00:25.919Z,99041.25
2022-09-27T17:02:53.066Z,99042.53
2022-09-27T17:05:19.577Z,99036.69
2022-09-27T17:07:50.290Z,99039.84
2022-09-27T17:10:17.257Z,99041.50
2022-09-27T17:12:43.493Z,99027.88
2022-09-27T17:15:10.010Z,99019.38
2022-09-27T17:17:36.253Z,99014.97
2022-09-27T17:20:02.816Z,99016.41
2022-09-27T17:22:30.447Z,99019.56
2022-09-27T17:24:57.328Z,99019.38
2022-09-27T17:27:27.244Z,99022.53
2022-09-27T17:29:54.638Z,99026.31
2022-09-27T17:32:23.510Z,99029.47
2022-09-27T17:34:51.016Z,99032.44
2022-09-27T17:37:18.147Z,99033.47
2022-09-27T17:39:44.569Z,99041.22
2022-09-27T17:42:11.968Z,99048.78
2022-09-27T17:44:38.879Z,99054.25
2022-09-27T17:47:23.918Z,99055.28
2022-09-27T17:50:08.964Z,99056.13
2022-09-27T17:52:35.301Z,99049.22
2022-09-27T17:55:02.896Z,99047.13
2022-09-27T17:57:29.637Z,99053.41
2022-09-27T17:59:57.230Z,99059.69
2022-09-27T18:02:24.934Z,99056.97
2022-09-27T18:04:51.398Z,99071.41
2022-09-27T18:07:19.051Z,99061.41
2022-09-27T18:09:49.938Z,99063.50
2022-09-27T18:12:16.605Z,99054.28
2022-09-27T18:14:43.181Z,99062.44
2022-09-27T18:17:12.210Z,99069.34
2022-09-27T18:19:39.230Z,99065.59
2022-09-27T18:22:06.581Z,99076.47
2022-09-27T18:24:33.171Z,99083.34
2022-09-27T18:27:00.234Z,99077.72
2022-09-27T18:29:28.014Z,99085.66
2022-09-27T18:31:55.029Z,99079.19
2022-09-27T18:34:22.898Z,99078.97
2022-09-27T18:36:49.662Z,99073.53
2022-09-27T18:39:18.465Z,99082.31
2022-09-27T18:41:47.945Z,99083.34
2022-09-27T18:44:15.332Z,99088.78
2022-09-27T18:46:42.703Z,99084.81
2022-09-27T18:49:11.726Z,99091.09
2022-09-27T18:51:42.931Z,99098.81
2022-09-27T18:54:18.673Z,99097.78
2022-09-27T18:56:47.132Z,99101.53
2022-09-27T18:59:15.108Z,99101.91
2022-09-27T19:01:44.759Z,99102.97
2022-09-27T19:04:19.253Z,99104.84
2022-09-27T19:06:48.325Z,99105.06
2022-09-27T19:09:15.185Z,99106.53
2022-09-27T19:11:41.772Z,99110.28
2022-09-27T19:14:15.000Z,99117.81
2022-09-27T19:16:41.359Z,99119.69
2022-09-27T19:19:08.734Z,99116.34
2022-09-27T19:21:35.276Z,99119.06
2022-09-27T19:24:01.739Z,99107.56
2022-09-27T19:26:28.424Z,99117.59
2022-09-27T19:28:55.198Z,99113.19
2022-09-27T19:31:28.840Z,99117.16
2022-09-27T19:33:59.921Z,99122.16
2022-09-27T19:36:28.261Z,99122.81
2022-09-27T19:38:57.725Z,99132.00
2022-09-27T19:41:24.296Z,99130.34
2022-09-27T19:43:52.366Z,99126.56
2022-09-27T19:46:19.879Z,99134.53
2022-09-27T19:48:47.560Z,99133.47
2022-09-27T19:51:18.931Z,99139.56
2022-09-27T19:53:45.675Z,99138.31
2022-09-27T19:56:12.716Z,99134.13
2022-09-27T19:58:39.952Z,99135.59
2022-09-27T20:01:10.976Z,99133.97
2022-09-27T20:03:40.160Z,99135.84
2022-09-27T20:06:09.480Z,99135.44
2022-09-27T20:08:36.003Z,99135.84
2022-09-27T20:11:08.071Z,99136.06
2022-09-27T20:13:35.433Z,99139.19
2022-09-27T20:16:02.138Z,99137.94
2022-09-27T20:18:28.815Z,99142.69
2022-09-27T20:20:58.958Z,99138.72
2022-09-27T20:23:25.234Z,99136.19
2022-09-27T20:25:51.497Z,99144.34
2022-09-27T20:28:17.941Z,99131.16
2022-09-27T20:30:55.028Z,99133.44
2022-09-27T20:33:39.955Z,99140.75
2022-09-27T20:36:27.223Z,99144.09
2022-09-27T20:39:01.165Z,99146.59
2022-09-27T20:41:50.410Z,99146.16
2022-09-27T20:44:18.999Z,99154.31
2022-09-27T20:46:46.793Z,99157.03
2022-09-27T20:49:16.870Z,99157.03
2022-09-27T20:51:47.674Z,99153.66
2022-09-27T20:54:14.360Z,99150.72
2022-09-27T20:56:45.656Z,99147.97
2022-09-27T20:59:16.927Z,99150.25
2022-09-27T21:01:45.393Z,99146.47
2022-09-27T21:04:13.728Z,99138.28
2022-09-27T21:06:40.410Z,99142.25
2022-09-27T21:09:08.099Z,99134.69
2022-09-27T21:11:34.947Z,99136.16
2022-09-27T21:14:01.665Z,99140.28
2022-09-27T21:16:32.491Z,99144.84
2022-09-27T21:18:58.661Z,99153.59
2022-09-27T21:21:25.980Z,99151.06
2022-09-27T21:23:54.772Z,99165.25
2022-09-27T21:26:22.454Z,99159.22
2022-09-27T21:28:57.556Z,99160.84
2022-09-27T21:31:26.362Z,99170.88
2022-09-27T21:33:55.280Z,99163.31
2022-09-27T21:36:32.284Z,99169.53
2022-09-27T21:38:58.864Z,99164.91
2022-09-27T21:41:26.307Z,99167.41
2022-09-27T21:43:52.734Z,99166.31
2022-09-27T21:46:24.612Z,99163.88
2022-09-27T21:48:54.810Z,99173.25
2022-09-27T21:51:29.607Z,99164.91
2022-09-27T21:53:58.341Z,99167.81
2022-09-27T21:56:26.992Z,99168.66
2022-09-27T21:58:53.278Z,99165.28
2022-09-27T22:01:33.441Z,99163.22
2022-09-27T22:04:01.394Z,99164.91
2022-09-27T22:06:29.974Z,99162.38
2022-09-27T22:08:58.162Z,99167.81
2022-09-27T22:11:28.481Z,99163.38
2022-09-27T22:13:54.759Z,99161.25
2022-09-27T22:16:21.776Z,99161.03
2022-09-27T22:18:50.560Z,99156.84
2022-09-27T22:21:21.970Z,99161.53
2022-09-27T22:23:53.250Z,99165.28
2022-09-27T22:26:22.202Z,99167.69
2022-09-27T22:28:48.867Z,99173.50
2022-09-27T22:31:18.138Z,99176.59
2022-09-27T22:33:49.884Z,99168.00
2022-09-27T22:36:16.961Z,99171.88
2022-09-27T22:38:43.525Z,99176.81
2022-09-27T22:41:11.335Z,99174.25
2022-09-27T22:43:38.750Z,99166.22
2022-09-27T22:46:05.082Z,99173.31
2022-09-27T22:48:31.726Z,99164.28
2022-09-27T22:50:59.507Z,99167.00
2022-09-27T22:53:29.728Z,99170.94
2022-09-27T22:56:00.669Z,99171.22
2022-09-27T22:58:30.081Z,99179.94
2022-09-27T23:00:56.429Z,99175.09
2022-09-27T23:03:22.794Z,99173.97
2022-09-27T23:05:49.239Z,99175.00
2022-09-27T23:08:15.308Z,99179.50
2022-09-27T23:10:42.264Z,99169.69
2022-09-27T23:13:08.540Z,99175.75
2022-09-27T23:15:34.810Z,99187.91
2022-09-27T23:18:01.407Z,99179.50
2022-09-27T23:20:27.742Z,99178.00
2022-09-27T23:22:53.871Z,99178.56
2022-09-27T23:25:21.392Z,99183.16
2022-09-27T23:27:49.537Z,99181.94
2022-09-27T23:30:18.482Z,99182.31
2022-09-27T23:32:50.739Z,99183.16
2022-09-27T23:35:17.122Z,99169.72
2022-09-27T23:37:43.719Z,99175.31
2022-09-27T23:40:10.033Z,99176.38
2022-09-27T23:42:36.378Z,99181.69
2022-09-27T23:45:02.849Z,99167.69
2022-09-27T23:47:29.352Z,99172.47
2022-09-27T23:49:57.521Z,99165.56
2022-09-27T23:52:23.922Z,99176.00
2022-09-27T23:54:51.223Z,99173.13
2022-09-27T23:57:17.588Z,99171.34
2022-09-27T23:59:43.850Z,99167.00
